createdAt,value
2023-05-16T00:00:45.523Z,100326.94
2023-05-16T00:02:48.615Z,100323.91
2023-05-16T00:04:52.225Z,100324.38
2023-05-16T00:06:53.773Z,100328.44
2023-05-16T00:08:55.483Z,100328.50
2023-05-16T00:10:57.384Z,100326.59
2023-05-16T00:12:58.973Z,100333.97
2023-05-16T00:15:00.985Z,100330.44
2023-05-16T00:17:02.732Z,100328.06
2023-05-16T00:19:07.188Z,100325.34
2023-05-16T00:21:11.396Z,100324.19
2023-05-16T00:23:13.073Z,100317.50
2023-05-16T00:25:14.675Z,100325.69
2023-05-16T00:27:16.459Z,100319.66
2023-05-16T00:29:18.390Z,100321.25
2023-05-16T00:31:20.095Z,100329.69
2023-05-16T00:33:21.685Z,100321.84
2023-05-16T00:35:23.409Z,100325.00
2023-05-16T00:37:26.412Z,100324.53
2023-05-16T00:39:28.004Z,100314.75
2023-05-16T00:41:29.901Z,100319.72
2023-05-16T00:43:31.866Z,100319.97
2023-05-16T00:45:33.434Z,100313.56
2023-05-16T00:47:35.334Z,100314.91
2023-05-16T00:49:37.484Z,100316.03
2023-05-16T00:51:39.581Z,100324.69
2023-05-16T00:53:43.046Z,100316.84
2023-05-16T00:55:45.165Z,100322.81
2023-05-16T00:57:48.593Z,100327.44
2023-05-16T00:59:50.939Z,100331.63
2023-05-16T01:01:52.890Z,100331.63
2023-05-16T01:03:55.401Z,100335.06
2023-05-16T01:05:57.934Z,100334.59
2023-05-16T01:07:59.651Z,100330.75
2023-05-16T01:10:03.918Z,100337.00
2023-05-16T01:12:14.535Z,100336.19
2023-05-16T01:14:35.297Z,100333.28
2023-05-16T01:16:42.018Z,100332.94
2023-05-16T01:18:52.082Z,100332.94
2023-05-16T01:20:58.975Z,100324.34
2023-05-16T01:23:12.919Z,100323.94
2023-05-16T01:25:31.437Z,100324.50
2023-05-16T01:27:38.079Z,100326.19
2023-05-16T01:29:39.675Z,100336.13
2023-05-16T01:31:41.344Z,100336.19
2023-05-16T01:33:43.401Z,100336.41
2023-05-16T01:35:53.668Z,100335.94
2023-05-16T01:38:04.664Z,100335.81
2023-05-16T01:40:12.851Z,100329.59
2023-05-16T01:42:15.473Z,100335.22
2023-05-16T01:44:25.112Z,100329.41
2023-05-16T01:46:30.232Z,100337.94
2023-05-16T01:48:39.341Z,100335.69
2023-05-16T01:50:49.553Z,100335.34
2023-05-16T01:52:56.750Z,100337.59
2023-05-16T01:55:00.122Z,100340.41
2023-05-16T01:57:04.426Z,100337.97
2023-05-16T01:59:07.860Z,100347.09
2023-05-16T02:01:13.392Z,100341.13
2023-05-16T02:03:15.242Z,100339.81
2023-05-16T02:05:17.088Z,100339.28
2023-05-16T02:07:19.085Z,100334.13
2023-05-16T02:09:20.837Z,100352.78
2023-05-16T02:11:22.435Z,100349.28
2023-05-16T02:13:24.052Z,100351.75
2023-05-16T02:15:25.797Z,100351.28
2023-05-16T02:17:29.143Z,100348.13
2023-05-16T02:19:30.848Z,100356.78
2023-05-16T02:21:32.598Z,100347.50
2023-05-16T02:23:34.235Z,100345.06
2023-05-16T02:25:35.833Z,100343.47
2023-05-16T02:27:37.409Z,100344.28
2023-05-16T02:29:39.230Z,100343.16
2023-05-16T02:31:40.811Z,100338.22
2023-05-16T02:33:43.759Z,100347.16
2023-05-16T02:35:45.382Z,100344.56
2023-05-16T02:37:46.938Z,100349.75
2023-05-16T02:39:48.546Z,100350.53
2023-05-16T02:41:50.105Z,100349.41
2023-05-16T02:43:51.715Z,100342.19
2023-05-16T02:45:53.339Z,100339.94
2023-05-16T02:47:55.012Z,100341.38
2023-05-16T02:49:58.096Z,100336.41
2023-05-16T02:51:59.638Z,100338.50
2023-05-16T02:54:01.209Z,100337.53
2023-05-16T02:56:02.793Z,100343.78
2023-05-16T02:58:04.340Z,100353.56
2023-05-16T03:00:07.489Z,100351.97
2023-05-16T03:02:09.191Z,100356.78
2023-05-16T03:04:11.383Z,100355.50
2023-05-16T03:06:14.559Z,100357.44
2023-05-16T03:08:16.455Z,100354.25
2023-05-16T03:10:18.320Z,100355.22
2023-05-16T03:12:19.886Z,100347.19
2023-05-16T03:14:21.485Z,100355.34
2023-05-16T03:16:23.161Z,100360.31
2023-05-16T03:18:24.966Z,100357.09
2023-05-16T03:20:26.512Z,100365.44
2023-05-16T03:22:29.407Z,100355.34
2023-05-16T03:24:31.111Z,100364.34
2023-05-16T03:26:32.736Z,100367.06
2023-05-16T03:28:34.341Z,100365.47
2023-05-16T03:30:37.533Z,100365.63
2023-05-16T03:32:39.867Z,100366.28
2023-05-16T03:34:41.432Z,100367.72
2023-05-16T03:36:43.144Z,100367.56
2023-05-16T03:38:46.139Z,100365.66
2023-05-16T03:40:47.730Z,100368.03
2023-05-16T03:42:49.383Z,100370.44
2023-05-16T03:44:50.909Z,100377.19
2023-05-16T03:46:52.897Z,100377.81
2023-05-16T03:48:54.527Z,100378.63
2023-05-16T03:50:56.180Z,100376.84
2023-05-16T03:52:57.790Z,100377.97
2023-05-16T03:55:00.826Z,100384.38
2023-05-16T03:57:02.396Z,100392.88
2023-05-16T03:59:03.955Z,100390.44
2023-05-16T04:01:05.553Z,100393.81
2023-05-16T04:03:07.145Z,100397.84
2023-05-16T04:05:12.092Z,100389.97
2023-05-16T04:07:13.710Z,100394.63
2023-05-16T04:09:15.363Z,100396.25
2023-05-16T04:11:18.566Z,100391.91
2023-05-16T04:13:20.230Z,100401.34
2023-05-16T04:15:21.839Z,100398.00
2023-05-16T04:17:23.720Z,100399.59
2023-05-16T04:19:25.382Z,100407.44
2023-05-16T04:21:26.985Z,100401.97
2023-05-16T04:23:28.538Z,100394.78
2023-05-16T04:25:30.520Z,100403.94
2023-05-16T04:27:34.014Z,100405.38
2023-05-16T04:29:35.696Z,100405.53
2023-05-16T04:31:37.587Z,100406.16
2023-05-16T04:33:39.268Z,100407.75
2023-05-16T04:35:40.877Z,100409.03
2023-05-16T04:37:42.604Z,100406.78
2023-05-16T04:39:44.203Z,100416.25
2023-05-16T04:41:47.417Z,100411.09
2023-05-16T04:43:50.620Z,100419.94
2023-05-16T04:45:52.291Z,100417.34
2023-05-16T04:47:53.905Z,100428.88
2023-05-16T04:49:55.545Z,100441.22
2023-05-16T04:51:57.365Z,100440.09
2023-05-16T04:54:00.875Z,100437.53
2023-05-16T04:56:02.452Z,100445.53
2023-05-16T04:58:04.256Z,100444.25
2023-05-16T05:00:08.200Z,100445.53
2023-05-16T05:02:09.943Z,100435.31
2023-05-16T05:04:11.645Z,100439.59
2023-05-16T05:06:13.316Z,100442.50
2023-05-16T05:08:15.292Z,100445.22
2023-05-16T05:10:17.033Z,100449.69
2023-05-16T05:12:18.617Z,100447.75
2023-05-16T05:14:20.313Z,100448.72
2023-05-16T05:16:23.256Z,100457.72
2023-05-16T05:18:24.855Z,100461.56
2023-05-16T05:20:27.451Z,100462.00
2023-05-16T05:22:29.095Z,100457.69
2023-05-16T05:24:30.779Z,100460.75
2023-05-16T05:26:32.455Z,100461.06
2023-05-16T05:28:33.993Z,100462.34
2023-05-16T05:30:35.546Z,100458.81
2023-05-16T05:32:38.629Z,100464.88
2023-05-16T05:34:40.192Z,100474.34
2023-05-16T05:36:41.762Z,100469.09
2023-05-16T05:38:43.414Z,100462.19
2023-05-16T05:40:45.185Z,100470.38
2023-05-16T05:42:47.350Z,100469.72
2023-05-16T05:44:49.220Z,100467.63
2023-05-16T05:46:50.943Z,100462.75
2023-05-16T05:48:53.999Z,100469.03
2023-05-16T05:50:56.027Z,100468.88
2023-05-16T05:52:57.597Z,100468.50
2023-05-16T05:54:59.531Z,100465.78
2023-05-16T05:57:01.518Z,100473.22
2023-05-16T05:59:03.346Z,100476.22
2023-05-16T06:01:04.985Z,100475.69
2023-05-16T06:03:06.685Z,100473.94
2023-05-16T06:05:10.247Z,100469.09
2023-05-16T06:07:11.910Z,100480.75
2023-05-16T06:09:14.038Z,100471.22
2023-05-16T06:11:15.644Z,100474.88
2023-05-16T06:13:17.234Z,100473.81
2023-05-16T06:15:19.074Z,100478.94
2023-05-16T06:17:20.656Z,100477.75
2023-05-16T06:19:22.904Z,100479.06
2023-05-16T06:21:26.174Z,100485.34
2023-05-16T06:23:27.820Z,100481.13
2023-05-16T06:25:29.565Z,100484.56
2023-05-16T06:27:31.447Z,100495.84
2023-05-16T06:29:33.037Z,100488.00
2023-05-16T06:31:34.775Z,100490.56
2023-05-16T06:33:36.455Z,100489.94
2023-05-16T06:35:39.013Z,100488.22
2023-05-16T06:37:43.165Z,100486.84
2023-05-16T06:39:45.031Z,100490.81
2023-05-16T06:41:46.627Z,100495.00
2023-05-16T06:43:48.285Z,100489.31
2023-05-16T06:45:49.901Z,100490.34
2023-05-16T06:47:51.523Z,100492.50
2023-05-16T06:49:53.277Z,100493.13
2023-05-16T06:51:54.874Z,100492.34
2023-05-16T06:53:57.950Z,100494.59
2023-05-16T06:55:59.569Z,100494.25
2023-05-16T06:58:01.206Z,100492.25
2023-05-16T07:00:03.032Z,100506.03
2023-05-16T07:02:05.308Z,100502.03
2023-05-16T07:04:07.308Z,100510.72
2023-05-16T07:06:08.995Z,100516.47
2023-05-16T07:08:11.019Z,100515.06
2023-05-16T07:10:14.142Z,100524.00
2023-05-16T07:12:15.888Z,100529.81
2023-05-16T07:14:17.481Z,100518.94
2023-05-16T07:16:19.173Z,100522.16
2023-05-16T07:18:20.767Z,100525.59
2023-05-16T07:20:22.637Z,100527.44
2023-05-16T07:22:24.328Z,100527.78
2023-05-16T07:24:26.028Z,100526.56
2023-05-16T07:26:29.125Z,100525.53
2023-05-16T07:28:30.784Z,100533.91
2023-05-16T07:30:32.483Z,100529.63
2023-05-16T07:32:34.228Z,100535.53
2023-05-16T07:34:35.919Z,100527.47
2023-05-16T07:36:37.529Z,100531.34
2023-05-16T07:38:39.175Z,100535.31
2023-05-16T07:40:40.858Z,100529.75
2023-05-16T07:42:43.901Z,100547.44
2023-05-16T07:44:45.777Z,100540.75
2023-05-16T07:46:47.444Z,100541.28
2023-05-16T07:48:49.141Z,100549.72
2023-05-16T07:50:50.979Z,100553.50
2023-05-16T07:52:52.742Z,100557.91
2023-05-16T07:54:54.328Z,100554.25
2023-05-16T07:56:55.948Z,100560.09
2023-05-16T07:58:59.597Z,100563.31
2023-05-16T08:01:01.304Z,100561.56
2023-05-16T08:03:03.475Z,100568.19
2023-05-16T08:05:06.520Z,100572.19
2023-05-16T08:07:08.376Z,100574.13
2023-05-16T08:09:10.041Z,100580.84
2023-05-16T08:11:11.973Z,100574.75
2023-05-16T08:13:13.598Z,100582.44
2023-05-16T08:15:16.973Z,100581.03
2023-05-16T08:17:18.982Z,100583.41
2023-05-16T08:19:20.749Z,100586.13
2023-05-16T08:21:22.536Z,100583.91
2023-05-16T08:23:24.198Z,100589.19
2023-05-16T08:25:26.404Z,100592.41
2023-05-16T08:27:28.695Z,100590.00
2023-05-16T08:29:30.419Z,100585.34
2023-05-16T08:31:34.026Z,100590.66
2023-05-16T08:33:35.760Z,100589.19
2023-05-16T08:35:37.534Z,100579.28
2023-05-16T08:37:39.216Z,100587.25
2023-05-16T08:39:40.930Z,100589.66
2023-05-16T08:41:42.913Z,100588.41
2023-05-16T08:43:44.716Z,100595.75
2023-05-16T08:45:46.522Z,100588.06
2023-05-16T08:47:50.612Z,100589.84
2023-05-16T08:49:55.917Z,100592.09
2023-05-16T08:51:59.805Z,100585.50
2023-05-16T08:54:06.245Z,100584.84
2023-05-16T08:56:16.449Z,100584.34
2023-05-16T08:58:18.670Z,100587.38
2023-05-16T09:00:21.883Z,100588.81
2023-05-16T09:02:23.886Z,100590.56
2023-05-16T09:04:27.008Z,100598.53
2023-05-16T09:06:28.872Z,100594.41
2023-05-16T09:08:30.494Z,100596.94
2023-05-16T09:10:32.279Z,100600.03
2023-05-16T09:12:34.215Z,100596.22
2023-05-16T09:14:37.161Z,100600.34
2023-05-16T09:16:38.965Z,100591.06
2023-05-16T09:18:42.813Z,100603.56
2023-05-16T09:20:48.368Z,100600.69
2023-05-16T09:22:52.813Z,100602.59
2023-05-16T09:24:54.739Z,100602.47
2023-05-16T09:26:56.842Z,100612.06
2023-05-16T09:28:58.609Z,100616.72
2023-05-16T09:31:03.045Z,100612.88
2023-05-16T09:33:07.254Z,100622.66
2023-05-16T09:35:11.398Z,100614.25
2023-05-16T09:37:14.997Z,100624.72
2023-05-16T09:39:16.567Z,100620.41
2023-05-16T09:41:18.498Z,100627.16
2023-05-16T09:43:23.238Z,100630.81
2023-05-16T09:45:24.997Z,100633.44
2023-05-16T09:47:28.161Z,100633.56
2023-05-16T09:49:29.834Z,100631.63
2023-05-16T09:51:31.599Z,100637.88
2023-05-16T09:53:34.610Z,100642.25
2023-05-16T09:55:36.238Z,100636.16
2023-05-16T09:57:38.510Z,100643.19
2023-05-16T09:59:40.459Z,100642.72
2023-05-16T10:01:43.542Z,100640.13
2023-05-16T10:03:45.337Z,100645.09
2023-05-16T10:05:47.297Z,100645.13
2023-05-16T10:07:51.156Z,100644.13
2023-05-16T10:09:55.515Z,100652.00
2023-05-16T10:11:58.102Z,100650.06
2023-05-16T10:14:00.066Z,100652.78
2023-05-16T10:16:07.325Z,100653.09
2023-05-16T10:18:11.051Z,100662.06
2023-05-16T10:20:13.338Z,100661.41
2023-05-16T10:22:16.561Z,100660.97
2023-05-16T10:24:23.865Z,100656.94
2023-05-16T10:26:27.637Z,100658.41
2023-05-16T10:28:29.509Z,100664.78
2023-05-16T10:30:33.257Z,100671.69
2023-05-16T10:32:36.033Z,100664.47
2023-05-16T10:34:39.503Z,100670.25
2023-05-16T10:36:41.337Z,100675.69
2023-05-16T10:38:43.884Z,100678.22
2023-05-16T10:40:48.038Z,100676.22
2023-05-16T10:42:56.523Z,100674.59
2023-05-16T10:45:09.396Z,100672.31
2023-05-16T10:47:11.047Z,100662.63
2023-05-16T10:49:23.529Z,100667.41
2023-05-16T10:51:35.334Z,100666.56
2023-05-16T10:53:36.952Z,100670.75
2023-05-16T10:55:39.059Z,100666.25
2023-05-16T10:57:44.866Z,100670.72
2023-05-16T10:59:48.990Z,100664.94
2023-05-16T11:01:53.114Z,100671.34
2023-05-16T11:04:07.222Z,100673.06
2023-05-16T11:06:09.701Z,100672.72
2023-05-16T11:08:11.583Z,100674.91
2023-05-16T11:10:16.504Z,100675.25
2023-05-16T11:12:20.758Z,100677.88
2023-05-16T11:14:23.049Z,100689.16
2023-05-16T11:16:29.931Z,100687.06
2023-05-16T11:18:33.237Z,100682.44
2023-05-16T11:20:36.325Z,100693.03
2023-05-16T11:22:39.538Z,100692.91
2023-05-16T11:24:50.484Z,100682.63
2023-05-16T11:26:53.709Z,100695.91
2023-05-16T11:28:56.680Z,100698.13
2023-05-16T11:30:59.191Z,100697.16
2023-05-16T11:33:02.422Z,100701.16
2023-05-16T11:35:05.256Z,100694.56
2023-05-16T11:37:07.119Z,100696.00
2023-05-16T11:39:08.771Z,100696.22
2023-05-16T11:41:11.290Z,100698.78
2023-05-16T11:43:23.418Z,100700.88
2023-05-16T11:45:25.175Z,100706.31
2023-05-16T11:47:27.329Z,100700.38
2023-05-16T11:49:30.643Z,100700.72
2023-05-16T11:51:32.436Z,100706.00
2023-05-16T11:53:34.655Z,100701.63
2023-05-16T11:57:41.610Z,100706.97
2023-05-16T11:59:43.286Z,100707.22
2023-05-16T12:01:45.101Z,100706.88
2023-05-16T12:03:55.310Z,100705.88
2023-05-16T12:05:58.751Z,100707.31
2023-05-16T12:08:00.387Z,100706.97
2023-05-16T12:10:05.578Z,100706.69
2023-05-16T12:12:07.817Z,100710.59
2023-05-16T12:14:12.536Z,100711.09
2023-05-16T12:16:14.466Z,100719.66
2023-05-16T12:18:17.276Z,100715.06
2023-05-16T12:20:19.108Z,100715.09
2023-05-16T12:22:22.166Z,100711.06
2023-05-16T12:24:30.286Z,100718.31
2023-05-16T12:26:33.161Z,100714.97
2023-05-16T12:28:35.069Z,100713.22
2023-05-16T12:30:41.311Z,100721.28
2023-05-16T12:32:43.013Z,100716.63
2023-05-16T12:34:49.628Z,100716.97
2023-05-16T12:36:52.800Z,100730.91
2023-05-16T12:38:56.122Z,100717.41
2023-05-16T12:40:58.672Z,100722.53
2023-05-16T12:43:00.355Z,100726.72
2023-05-16T12:45:01.998Z,100724.94
2023-05-16T12:47:04.038Z,100726.06
2023-05-16T12:49:05.659Z,100725.56
2023-05-16T12:51:15.532Z,100729.25
2023-05-16T12:53:18.913Z,100730.41
2023-05-16T12:55:25.464Z,100732.63
2023-05-16T12:57:27.052Z,100728.63
2023-05-16T12:59:28.667Z,100718.53
2023-05-16T13:01:30.419Z,100729.75
2023-05-16T13:03:35.272Z,100737.31
2023-05-16T13:05:38.146Z,100735.34
2023-05-16T13:07:39.785Z,100727.66
2023-05-16T13:09:41.407Z,100735.69
2023-05-16T13:11:44.488Z,100732.81
2023-05-16T13:13:46.165Z,100733.75
2023-05-16T13:15:48.010Z,100729.25
2023-05-16T13:17:49.674Z,100729.91
2023-05-16T13:19:51.384Z,100723.19
2023-05-16T13:21:53.008Z,100733.59
2023-05-16T13:23:54.669Z,100736.66
2023-05-16T13:25:56.482Z,100734.88
2023-05-16T13:27:59.478Z,100739.06
2023-05-16T13:30:01.662Z,100751.06
2023-05-16T13:32:03.989Z,100743.53
2023-05-16T13:34:05.870Z,100744.00
2023-05-16T13:36:09.540Z,100743.72
2023-05-16T13:38:11.468Z,100742.75
2023-05-16T13:40:13.308Z,100745.94
2023-05-16T13:42:14.952Z,100752.50
2023-05-16T13:44:18.213Z,100743.88
2023-05-16T13:46:20.014Z,100742.25
2023-05-16T13:48:21.676Z,100740.03
2023-05-16T13:50:23.354Z,100742.91
2023-05-16T13:52:25.002Z,100738.72
2023-05-16T13:54:26.682Z,100738.41
2023-05-16T13:56:28.324Z,100732.78
2023-05-16T13:58:29.885Z,100738.41
2023-05-16T14:00:44.506Z,100733.28
2023-05-16T14:02:47.219Z,100739.38
2023-05-16T14:04:49.912Z,100735.38
2023-05-16T14:06:52.059Z,100734.41
2023-05-16T14:08:53.862Z,100736.19
2023-05-16T14:10:55.401Z,100729.78
2023-05-16T14:12:57.414Z,100729.94
2023-05-16T14:14:59.062Z,100727.06
2023-05-16T14:17:04.162Z,100736.03
2023-05-16T14:19:05.882Z,100731.22
2023-05-16T14:21:07.838Z,100725.44
2023-05-16T14:23:09.446Z,100724.16
2023-05-16T14:25:11.134Z,100727.53
2023-05-16T14:27:12.774Z,100715.78
2023-05-16T14:29:14.426Z,100710.28
2023-05-16T14:31:16.148Z,100699.25
2023-05-16T14:33:19.235Z,100705.59
2023-05-16T14:35:20.910Z,100697.69
2023-05-16T14:37:22.507Z,100705.28
2023-05-16T14:39:24.183Z,100696.72
2023-05-16T14:41:25.962Z,100696.66
2023-05-16T14:43:27.803Z,100688.88
2023-05-16T14:45:30.117Z,100689.19
2023-05-16T14:47:31.946Z,100693.13
2023-05-16T14:49:34.996Z,100694.28
2023-05-16T14:51:36.831Z,100692.81
2023-05-16T14:53:38.420Z,100694.13
2023-05-16T14:55:40.045Z,100689.59
2023-05-16T14:57:44.677Z,100692.16
2023-05-16T14:59:47.060Z,100683.03
2023-05-16T15:01:48.837Z,100686.06
2023-05-16T15:03:55.249Z,100686.41
2023-05-16T15:05:59.976Z,100685.44
2023-05-16T15:08:01.692Z,100675.72
2023-05-16T15:10:03.653Z,100680.31
2023-05-16T15:12:06.858Z,100677.59
2023-05-16T15:14:08.516Z,100679.44
2023-05-16T15:16:10.394Z,100672.59
2023-05-16T15:18:12.437Z,100678.84
2023-05-16T15:20:14.659Z,100683.03
2023-05-16T15:22:17.679Z,100679.88
2023-05-16T15:24:19.370Z,100664.47
2023-05-16T15:26:21.301Z,100673.50
2023-05-16T15:28:22.945Z,100668.84
2023-05-16T15:30:24.820Z,100682.28
2023-05-16T15:32:26.798Z,100681.81
2023-05-16T15:34:28.457Z,100689.09
2023-05-16T15:36:30.052Z,100677.88
2023-05-16T15:40:34.461Z,100680.59
2023-05-16T15:42:36.516Z,100684.53
2023-05-16T15:44:38.948Z,100693.34
2023-05-16T15:46:40.818Z,100690.41
2023-05-16T15:48:42.624Z,100687.31
2023-05-16T15:50:44.869Z,100686.28
2023-05-16T15:52:46.502Z,100686.06
2023-05-16T15:54:49.462Z,100679.44
2023-05-16T15:56:51.124Z,100687.31
2023-05-16T15:58:55.182Z,100693.25
2023-05-16T16:00:56.924Z,100687.22
2023-05-16T16:02:58.686Z,100684.94
2023-05-16T16:05:00.347Z,100693.81
2023-05-16T16:07:02.110Z,100687.84
2023-05-16T16:09:05.236Z,100688.47
2023-05-16T16:11:08.325Z,100686.41
2023-05-16T16:13:10.030Z,100687.13
2023-05-16T16:15:11.936Z,100679.63
2023-05-16T16:17:13.556Z,100682.00
2023-05-16T16:19:15.291Z,100686.69
2023-05-16T16:21:17.190Z,100691.69
2023-05-16T16:23:19.044Z,100696.34
2023-05-16T16:25:20.682Z,100695.00
2023-05-16T16:27:23.760Z,100697.56
2023-05-16T16:29:25.403Z,100703.31
2023-05-16T16:31:27.136Z,100709.56
2023-05-16T16:33:28.915Z,100707.22
2023-05-16T16:35:30.707Z,100703.13
2023-05-16T16:37:35.092Z,100703.69
2023-05-16T16:39:36.929Z,100702.09
2023-05-16T16:41:38.602Z,100706.09
2023-05-16T16:43:41.667Z,100708.00
2023-05-16T16:45:43.427Z,100706.25
2023-05-16T16:47:45.136Z,100709.06
2023-05-16T16:49:46.928Z,100701.19
2023-05-16T16:51:48.863Z,100702.78
2023-05-16T16:53:50.506Z,100709.44
2023-05-16T16:55:52.150Z,100705.59
2023-05-16T16:57:53.841Z,100715.47
2023-05-16T16:59:57.127Z,100714.31
2023-05-16T17:01:58.909Z,100726.13
2023-05-16T17:04:00.660Z,100724.25
2023-05-16T17:06:02.384Z,100727.50
2023-05-16T17:08:04.563Z,100731.00
2023-05-16T17:10:07.048Z,100734.59
2023-05-16T17:12:09.199Z,100730.25
2023-05-16T17:14:10.989Z,100741.53
2023-05-16T17:16:14.140Z,100735.94
2023-05-16T17:18:15.908Z,100739.44
2023-05-16T17:20:17.668Z,100742.69
2023-05-16T17:22:19.549Z,100744.94
2023-05-16T17:24:21.740Z,100747.22
2023-05-16T17:26:23.567Z,100746.91
2023-05-16T17:28:25.371Z,100752.09
2023-05-16T17:30:27.122Z,100753.38
2023-05-16T17:32:30.214Z,100753.84
2023-05-16T17:34:32.013Z,100761.38
2023-05-16T17:36:33.905Z,100754.00
2023-05-16T17:38:36.280Z,100760.25
2023-05-16T17:40:37.998Z,100760.91
2023-05-16T17:42:39.704Z,100765.88
2023-05-16T17:44:41.420Z,100762.69
2023-05-16T17:46:43.203Z,100763.03
2023-05-16T17:48:46.925Z,100767.41
2023-05-16T17:50:48.998Z,100769.66
2023-05-16T17:52:50.624Z,100761.19
2023-05-16T17:54:52.311Z,100763.59
2023-05-16T17:56:54.148Z,100771.91
2023-05-16T17:58:55.895Z,100768.25
2023-05-16T18:00:57.623Z,100767.59
2023-05-16T18:02:59.506Z,100773.56
2023-05-16T18:05:02.548Z,100775.66
2023-05-16T18:07:06.663Z,100783.34
2023-05-16T18:09:08.389Z,100780.94
2023-05-16T18:11:10.500Z,100784.31
2023-05-16T18:13:12.538Z,100783.50
2023-05-16T18:15:16.291Z,100785.44
2023-05-16T18:17:18.555Z,100792.50
2023-05-16T18:19:20.682Z,100793.63
2023-05-16T18:21:23.861Z,100803.88
2023-05-16T18:23:25.827Z,100804.03
2023-05-16T18:25:28.039Z,100811.69
2023-05-16T18:27:29.861Z,100806.38
2023-05-16T18:29:32.217Z,100802.72
2023-05-16T18:31:33.994Z,100802.06
2023-05-16T18:33:36.005Z,100805.41
2023-05-16T18:35:37.856Z,100804.91
2023-05-16T18:37:43.486Z,100810.66
2023-05-16T18:39:46.114Z,100812.09
2023-05-16T18:41:48.015Z,100814.63
2023-05-16T18:43:50.170Z,100823.44
2023-05-16T18:45:52.033Z,100823.09
2023-05-16T18:47:53.858Z,100829.34
2023-05-16T18:49:55.767Z,100833.50
2023-05-16T18:51:57.484Z,100832.84
2023-05-16T18:54:00.903Z,100837.66
2023-05-16T18:56:03.112Z,100839.28
2023-05-16T18:58:05.313Z,100849.00
2023-05-16T19:00:08.468Z,100847.03
2023-05-16T19:02:10.958Z,100852.13
2023-05-16T19:04:13.258Z,100857.88
2023-05-16T19:06:15.396Z,100862.22
2023-05-16T19:08:17.302Z,100866.66
2023-05-16T19:10:20.616Z,100861.53
2023-05-16T19:12:22.891Z,100864.28
2023-05-16T19:14:24.885Z,100868.38
2023-05-16T19:16:28.828Z,100872.72
2023-05-16T19:18:30.589Z,100875.94
2023-05-16T19:20:34.714Z,100885.13
2023-05-16T19:22:37.776Z,100886.06
2023-05-16T19:24:39.667Z,100892.53
2023-05-16T19:26:43.575Z,100886.56
2023-05-16T19:28:45.728Z,100884.97
2023-05-16T19:30:47.751Z,100890.78
2023-05-16T19:32:49.815Z,100890.59
2023-05-16T19:34:51.681Z,100897.72
2023-05-16T19:36:53.594Z,100902.06
2023-05-16T19:38:55.814Z,100900.63
2023-05-16T19:40:58.208Z,100906.56
2023-05-16T19:43:01.585Z,100908.28
2023-05-16T19:45:04.340Z,100910.28
2023-05-16T19:47:06.625Z,100910.09
2023-05-16T19:49:08.458Z,100914.13
2023-05-16T19:51:10.789Z,100914.13
2023-05-16T19:53:12.472Z,100919.69
2023-05-16T19:55:14.633Z,100921.28
2023-05-16T19:57:16.653Z,100924.34
2023-05-16T19:59:19.725Z,100926.75
2023-05-16T20:01:21.456Z,100921.13
2023-05-16T20:03:23.443Z,100931.81
2023-05-16T20:05:25.522Z,100933.63
2023-05-16T20:07:27.705Z,100931.69
2023-05-16T20:09:29.836Z,100937.28
2023-05-16T20:11:31.794Z,100940.25
2023-05-16T20:13:33.503Z,100947.94
2023-05-16T20:15:36.926Z,100954.00
2023-05-16T20:17:39.383Z,100957.84
2023-05-16T20:19:41.110Z,100968.22
2023-05-16T20:21:43.192Z,100969.75
2023-05-16T20:23:45.437Z,100970.66
2023-05-16T20:25:47.224Z,100973.41
2023-05-16T20:27:52.613Z,100967.59
2023-05-16T20:29:54.351Z,100972.72
2023-05-16T20:31:59.000Z,100969.19
2023-05-16T20:34:00.895Z,100976.53
2023-05-16T20:36:02.641Z,100973.63
2023-05-16T20:38:04.339Z,100978.28
2023-05-16T20:40:07.854Z,100974.44
2023-05-16T20:42:09.790Z,100971.81
2023-05-16T20:44:11.374Z,100972.75
2023-05-16T20:46:13.304Z,100980.72
2023-05-16T20:48:16.785Z,100981.84
2023-05-16T20:50:18.653Z,100982.75
2023-05-16T20:52:21.971Z,100982.25
2023-05-16T20:54:23.763Z,100983.66
2023-05-16T20:56:25.605Z,100994.03
2023-05-16T20:58:27.216Z,100987.41
2023-05-16T21:00:28.903Z,100987.41
2023-05-16T21:02:30.558Z,100989.91
2023-05-16T21:04:33.782Z,100994.06
2023-05-16T21:06:35.371Z,100993.56
2023-05-16T21:08:36.994Z,100989.03
2023-05-16T21:10:38.720Z,100999.69
2023-05-16T21:12:40.386Z,101001.50
2023-05-16T21:14:41.992Z,101004.13
2023-05-16T21:16:43.827Z,101007.75
2023-05-16T21:18:45.736Z,101011.06
2023-05-16T21:20:49.095Z,101007.63
2023-05-16T21:22:51.018Z,101006.59
2023-05-16T21:24:52.959Z,101009.94
2023-05-16T21:26:54.581Z,101007.81
2023-05-16T21:28:56.431Z,101019.78
2023-05-16T21:30:58.083Z,101021.28
2023-05-16T21:32:59.786Z,101026.81
2023-05-16T21:35:01.582Z,101023.38
2023-05-16T21:37:04.903Z,101029.59
2023-05-16T21:39:06.595Z,101033.00
2023-05-16T21:41:08.981Z,101026.56
2023-05-16T21:43:10.613Z,101029.66
2023-05-16T21:45:12.598Z,101036.78
2023-05-16T21:47:14.286Z,101037.91
2023-05-16T21:49:16.088Z,101040.16
2023-05-16T21:51:18.821Z,101034.00
2023-05-16T21:53:21.807Z,101041.94
2023-05-16T21:55:23.812Z,101041.72
2023-05-16T21:57:25.399Z,101044.44
2023-05-16T21:59:27.080Z,101051.75
2023-05-16T22:01:28.748Z,101047.69
2023-05-16T22:03:30.392Z,101047.38
2023-05-16T22:05:32.094Z,101050.59
2023-05-16T22:07:33.864Z,101049.66
2023-05-16T22:09:37.077Z,101059.78
2023-05-16T22:11:38.715Z,101062.78
2023-05-16T22:13:40.366Z,101062.50
2023-05-16T22:15:44.517Z,101058.44
2023-05-16T22:17:48.789Z,101058.75
2023-05-16T22:19:50.743Z,101061.16
2023-05-16T22:21:52.405Z,101065.00
2023-05-16T22:23:54.063Z,101065.81
2023-05-16T22:25:57.078Z,101068.00
2023-05-16T22:27:58.718Z,101071.28
2023-05-16T22:30:00.386Z,101066.16
2023-05-16T22:32:02.015Z,101064.03
2023-05-16T22:34:03.836Z,101060.00
2023-05-16T22:36:06.160Z,101062.66
2023-05-16T22:38:07.792Z,101063.75
2023-05-16T22:40:10.423Z,101069.78
2023-05-16T22:42:13.443Z,101074.19
2023-05-16T22:44:15.220Z,101074.22
2023-05-16T22:46:16.863Z,101075.09
2023-05-16T22:48:18.629Z,101076.53
2023-05-16T22:50:20.291Z,101077.66
2023-05-16T22:52:22.018Z,101075.44
2023-05-16T22:54:23.743Z,101068.25
2023-05-16T22:56:25.423Z,101079.66
2023-05-16T22:58:28.349Z,101078.41
2023-05-16T23:00:30.048Z,101084.97
2023-05-16T23:02:31.854Z,101078.47
2023-05-16T23:04:33.593Z,101085.84
2023-05-16T23:06:35.317Z,101076.56
2023-05-16T23:08:36.916Z,101082.03
2023-05-16T23:10:38.660Z,101080.44
2023-05-16T23:12:40.304Z,101080.88
2023-05-16T23:14:43.328Z,101079.22
2023-05-16T23:16:44.924Z,101075.69
2023-05-16T23:18:46.783Z,101081.69
2023-05-16T23:20:48.594Z,101084.84
2023-05-16T23:22:50.316Z,101084.44